Time;durP1;ratioP1;P1;durP2;ratioP2;P2;SDS_P1;SDS_P2;PMS_P1;PMS_P2;Temp;Humidity;BMP_temperature;BMP_pressure;BME280_temperature;BME280_humidity;BME280_pressure;Samples;Min_cycle;Max_cycle;Signal;HPM_P1;HPM_P2
2022/12/12 00:01:48;;;;;;;10.67;7.53;;;;;;;4.46;100.00;93343.34;5089940;28;20192;-77
2022/12/12 00:04:15;;;;;;;12.83;8.77;;;;;;;4.53;100.00;93350.00;5088461;28;20198;-76
2022/12/12 00:06:42;;;;;;;12.53;8.37;;;;;;;4.50;100.00;93353.00;5087301;28;20212;-76
2022/12/12 00:09:09;;;;;;;20.57;15.33;;;;;;;4.59;100.00;93353.50;5087565;28;20255;-76
2022/12/12 00:11:37;;;;;;;24.67;17.63;;;;;;;4.54;100.00;93350.78;5086490;28;20355;-74
2022/12/12 00:14:04;;;;;;;23.63;15.77;;;;;;;4.38;100.00;93362.44;5088836;28;20261;-74
2022/12/12 00:16:31;;;;;;;13.67;9.30;;;;;;;4.46;100.00;93369.06;5087429;28;20202;-74
2022/12/12 00:18:58;;;;;;;17.67;9.73;;;;;;;4.51;100.00;93351.22;5087188;28;20578;-74
2022/12/12 00:21:27;;;;;;;12.80;8.50;;;;;;;4.58;100.00;93351.94;5087023;28;20190;-74
2022/12/12 00:23:54;;;;;;;12.37;7.43;;;;;;;4.70;100.00;93375.19;5089779;28;20203;-74
2022/12/12 00:26:24;;;;;;;10.40;6.47;;;;;;;4.59;100.00;93366.38;5087256;28;20199;-74
2022/12/12 00:28:52;;;;;;;7.43;5.83;;;;;;;4.48;100.00;93369.63;5085832;28;20611;-74
2022/12/12 00:31:20;;;;;;;6.43;4.90;;;;;;;4.36;100.00;93348.97;5086856;28;20295;-74
2022/12/12 00:33:48;;;;;;;6.70;4.97;;;;;;;4.52;100.00;93366.44;5087061;28;20202;-74
2022/12/12 00:36:16;;;;;;;6.17;4.70;;;;;;;4.59;100.00;93367.16;5089169;28;20192;-74
2022/12/12 00:38:43;;;;;;;6.37;4.67;;;;;;;4.68;100.00;93362.50;5086639;28;21726;-74
2022/12/12 00:41:10;;;;;;;4.57;3.90;;;;;;;4.52;100.00;93358.72;5086865;28;20205;-74
2022/12/12 00:43:37;;;;;;;4.63;3.90;;;;;;;4.42;100.00;93353.28;5085944;28;21399;-74
2022/12/12 00:46:05;;;;;;;5.43;4.07;;;;;;;4.37;100.00;93337.69;5087287;28;20201;-75
2022/12/12 00:48:33;;;;;;;4.33;3.80;;;;;;;4.58;100.00;93362.25;5085875;28;20196;-75
2022/12/12 00:51:07;;;;;;;5.20;4.17;;;;;;;4.71;100.00;93377.53;5086090;28;20232;-74
2022/12/12 00:53:35;;;;;;;5.23;4.23;;;;;;;4.73;100.00;93382.47;5086154;28;20198;-74
2022/12/12 00:56:01;;;;;;;6.17;4.20;;;;;;;4.67;100.00;93378.97;5084962;28;20938;-74
2022/12/12 00:58:30;;;;;;;5.03;4.40;;;;;;;4.75;100.00;93386.41;5088746;28;20196;-74
2022/12/12 01:01:04;;;;;;;5.27;4.40;;;;;;;4.78;100.00;93393.69;5086210;28;20205;-74
2022/12/12 01:03:33;;;;;;;8.17;4.60;;;;;;;4.72;100.00;93396.31;5086279;28;20196;-73
2022/12/12 01:06:00;;;;;;;5.87;4.70;;;;;;;4.72;100.00;93396.31;5086601;28;20204;-74
2022/12/12 01:08:27;;;;;;;5.80;4.80;;;;;;;4.76;100.00;93395.69;5087058;28;20651;-74
2022/12/12 01:10:54;;;;;;;7.23;5.00;;;;;;;4.77;100.00;93381.03;5086899;28;20217;-74
2022/12/12 01:13:21;;;;;;;6.80;4.93;;;;;;;4.79;100.00;93394.50;5086516;28;20200;-73
2022/12/12 01:15:48;;;;;;;9.07;5.17;;;;;;;4.81;100.00;93393.28;5085991;28;20189;-76
2022/12/12 01:18:14;;;;;;;6.50;5.20;;;;;;;4.88;100.00;93396.53;5085980;28;20205;-76
2022/12/12 01:20:43;;;;;;;7.40;5.20;;;;;;;4.80;100.00;93375.47;5087544;28;20201;-76
2022/12/12 01:23:10;;;;;;;6.67;5.47;;;;;;;4.80;100.00;93381.41;5085185;28;20214;-75
2022/12/12 01:25:37;;;;;;;6.67;5.27;;;;;;;4.93;100.00;93390.78;5130804;22;20217;-73
2022/12/12 01:28:05;;;;;;;7.50;5.40;;;;;;;4.98;100.00;93404.56;5000406;28;20219;-74
2022/12/12 01:30:32;;;;;;;7.20;5.67;;;;;;;4.98;100.00;93404.56;5017189;28;20697;-74
2022/12/12 01:32:59;;;;;;;6.93;5.77;;;;;;;5.03;100.00;93404.72;5021802;28;20641;-74
2022/12/12 01:35:26;;;;;;;6.97;5.63;;;;;;;5.05;100.00;93402.69;5018823;28;20529;-74
2022/12/12 01:37:54;;;;;;;8.30;6.50;;;;;;;5.05;100.00;93399.34;5019012;28;20205;-75
2022/12/12 01:40:23;;;;;;;10.50;6.57;;;;;;;5.16;100.00;93403.78;5018836;28;20203;-73
2022/12/12 01:42:51;;;;;;;9.33;7.10;;;;;;;5.10;100.00;93413.16;5019585;28;20662;-74
2022/12/12 01:46:07;;;;;;;11.13;8.13;;;;;;;5.00;100.00;93423.16;5014827;28;20199;-77
2022/12/12 01:48:37;;;;;;;11.90;8.30;;;;;;;4.94;100.00;93421.44;5001287;28;20196;-76
2022/12/12 01:51:07;;;;;;;12.30;8.93;;;;;;;4.90;100.00;93411.78;5018711;28;20235;-76
2022/12/12 01:53:36;;;;;;;13.17;8.80;;;;;;;4.85;100.00;93416.78;5024593;28;20191;-73
2022/12/12 01:56:11;;;;;;;11.07;8.07;;;;;;;4.83;100.00;93416.19;5021662;28;20215;-74
2022/12/12 01:58:39;;;;;;;12.03;8.37;;;;;;;4.87;100.00;93414.78;5027844;28;20195;-74
2022/12/12 02:01:06;;;;;;;11.83;8.37;;;;;;;4.83;100.00;93417.00;5021531;28;20643;-74
2022/12/12 02:03:33;;;;;;;10.63;8.20;;;;;;;4.81;100.00;93420.78;5016436;28;20200;-74
2022/12/12 02:06:06;;;;;;;10.87;7.70;;;;;;;4.80;100.00;93424.34;5019640;28;20862;-76
2022/12/12 02:08:33;;;;;;;11.70;8.40;;;;;;;4.79;100.00;93435.66;5016633;28;20199;-77
2022/12/12 02:11:02;;;;;;;10.53;8.00;;;;;;;4.73;100.00;93444.22;5019272;28;20214;-76
2022/12/12 02:13:32;;;;;;;10.30;7.87;;;;;;;4.52;100.00;93435.91;5018545;28;20211;-76
2022/12/12 02:16:14;;;;;;;10.73;8.10;;;;;;;4.46;100.00;93436.72;5017818;28;20217;-77
2022/12/12 02:18:49;;;;;;;10.67;8.00;;;;;;;4.46;100.00;93433.38;5016203;28;20203;-77
2022/12/12 02:21:22;;;;;;;11.23;8.20;;;;;;;4.50;100.00;93429.38;5021266;28;20188;-76
2022/12/12 02:24:36;;;;;;;10.73;8.20;;;;;;;4.45;100.00;93434.34;5023629;28;20767;-76
2022/12/12 02:27:44;;;;;;;11.60;8.13;;;;;;;4.39;100.00;93425.69;5018919;28;20289;-76
2022/12/12 02:30:17;;;;;;;10.07;7.80;;;;;;;4.32;100.00;93437.84;5010148;28;20206;-76
2022/12/12 02:32:58;;;;;;;12.40;8.13;;;;;;;4.20;100.00;93428.44;5022346;28;20665;-76
2022/12/12 02:35:35;;;;;;;10.83;8.13;;;;;;;4.16;100.00;93425.50;5022430;28;20191;-75
2022/12/12 02:38:09;;;;;;;11.57;7.97;;;;;;;4.14;100.00;93432.63;5022639;28;20557;-74
2022/12/12 02:40:46;;;;;;;11.63;8.37;;;;;;;4.04;100.00;93429.72;5022070;28;20288;-74
2022/12/12 02:43:19;;;;;;;13.47;8.33;;;;;;;4.00;100.00;93438.84;5023860;28;20202;-74
2022/12/12 02:45:50;;;;;;;11.63;8.40;;;;;;;3.98;100.00;93433.16;5022829;28;20582;-74
2022/12/12 02:48:24;;;;;;;11.43;8.13;;;;;;;4.00;100.00;93426.00;5024006;28;20193;-74
2022/12/12 02:50:54;;;;;;;12.67;9.20;;;;;;;3.99;100.00;93429.56;5021792;28;20310;-75
2022/12/12 02:53:23;;;;;;;11.57;8.40;;;;;;;3.95;100.00;93410.44;5022459;28;20199;-76
2022/12/12 02:56:00;;;;;;;11.43;8.60;;;;;;;3.91;100.00;93428.03;5024685;28;20213;-76
2022/12/12 02:58:27;;;;;;;10.83;8.17;;;;;;;3.79;100.00;93416.84;5021559;28;20322;-76
2022/12/12 03:01:09;;;;;;;11.67;8.20;;;;;;;3.82;100.00;93413.88;5025090;28;20186;-78
2022/12/12 03:09:45;;;;;;;12.03;8.40;;;;;;;3.80;100.00;93428.72;5022372;28;20197;-77
2022/12/12 03:12:18;;;;;;;12.73;8.83;;;;;;;3.78;100.00;93432.47;5025187;28;20235;-77
2022/12/12 03:14:54;;;;;;;12.50;8.43;;;;;;;3.79;100.00;93426.31;5027006;28;20205;-77
2022/12/12 03:17:28;;;;;;;12.20;8.90;;;;;;;3.79;100.00;93431.47;5019392;28;20621;-77
2022/12/12 03:20:03;;;;;;;13.13;8.60;;;;;;;3.81;100.00;93432.06;5020684;28;20226;-77
2022/12/12 03:22:37;;;;;;;12.47;8.57;;;;;;;3.78;100.00;93430.69;5021362;28;20199;-77
2022/12/12 03:25:09;;;;;;;13.03;9.03;;;;;;;3.82;100.00;93416.44;5017324;28;20590;-76
2022/12/12 03:27:43;;;;;;;11.27;8.37;;;;;;;3.81;100.00;93435.41;5026755;28;20753;-77
2022/12/12 03:30:13;;;;;;;15.37;9.90;;;;;;;3.78;100.00;93435.06;5027135;28;20211;-77
2022/12/12 03:32:45;;;;;;;13.73;9.23;;;;;;;3.75;100.00;93432.91;5023199;28;20227;-77
2022/12/12 03:35:19;;;;;;;13.23;9.20;;;;;;;3.74;100.00;93447.50;5021050;28;20210;-77
2022/12/12 03:37:51;;;;;;;12.90;9.33;;;;;;;3.59;100.00;93438.50;5021254;28;20190;-76
2022/12/12 03:40:22;;;;;;;12.77;8.93;;;;;;;3.60;100.00;93451.16;5023209;28;20677;-76
2022/12/12 03:42:57;;;;;;;14.33;9.73;;;;;;;3.55;100.00;93448.38;5023484;28;20195;-75
2022/12/12 03:45:30;;;;;;;19.03;12.40;;;;;;;3.57;100.00;93448.19;5018246;28;20219;-76
2022/12/12 03:48:01;;;;;;;20.27;13.03;;;;;;;3.53;100.00;93455.50;5020538;28;20191;-73
2022/12/12 03:50:34;;;;;;;23.83;14.50;;;;;;;3.54;100.00;93451.97;5022790;28;20207;-74
2022/12/12 03:53:08;;;;;;;18.97;13.27;;;;;;;3.54;100.00;93456.31;5025239;28;20191;-74
2022/12/12 03:55:40;;;;;;;23.77;14.60;;;;;;;3.52;100.00;93466.00;5025039;28;20197;-74
2022/12/12 03:58:12;;;;;;;27.37;16.53;;;;;;;3.59;100.00;93472.69;5021393;28;20253;-74
2022/12/12 04:00:41;;;;;;;29.87;17.60;;;;;;;3.56;100.00;93459.44;5021431;28;20597;-76
2022/12/12 04:03:15;;;;;;;38.53;21.87;;;;;;;3.48;100.00;93463.03;5023803;28;20210;-77
2022/12/12 04:08:36;;;;;;;47.63;28.30;;;;;;;3.47;100.00;93465.81;5022297;28;20198;-77
2022/12/12 04:14:07;;;;;;;45.03;26.63;;;;;;;3.47;100.00;93470.94;5020938;28;20221;-76
2022/12/12 04:16:38;;;;;;;52.80;31.43;;;;;;;3.44;100.00;93470.38;5019069;28;20203;-75
2022/12/12 04:23:13;;;;;;;54.10;32.33;;;;;;;3.46;100.00;93475.31;5026522;28;20623;-75
2022/12/12 04:24:57;;;;;;;52.50;30.37;;;;;;;3.44;100.00;93485.75;5019498;28;20775;-75
2022/12/12 04:27:28;;;;;;;59.80;33.20;;;;;;;3.53;100.00;93493.22;5026582;28;20234;-75
2022/12/12 04:30:03;;;;;;;57.20;32.87;;;;;;;3.38;100.00;93494.28;5022959;28;20216;-75
2022/12/12 04:32:35;;;;;;;52.50;31.43;;;;;;;3.27;100.00;93489.78;5019423;28;20207;-75
2022/12/12 04:35:08;;;;;;;54.87;32.37;;;;;;;3.35;100.00;93504.94;5016450;28;20595;-77
2022/12/12 04:37:43;;;;;;;62.10;34.00;;;;;;;3.32;100.00;93495.09;5022491;28;20206;-78
2022/12/12 04:40:14;;;;;;;56.00;33.00;;;;;;;3.41;100.00;93493.88;5028011;28;21168;-78
2022/12/12 04:42:45;;;;;;;55.97;33.67;;;;;;;3.46;100.00;93489.91;5018016;28;20657;-77
2022/12/12 04:45:16;;;;;;;57.23;32.33;;;;;;;3.45;100.00;93476.28;5025350;28;20203;-77
2022/12/12 04:47:46;;;;;;;57.33;32.93;;;;;;;3.36;100.00;93478.28;5022664;28;20206;-78
2022/12/12 04:50:15;;;;;;;55.03;31.93;;;;;;;3.42;100.00;93485.19;5023504;28;20222;-76
2022/12/12 04:52:45;;;;;;;55.67;33.10;;;;;;;3.41;100.00;93491.31;5028275;28;20226;-76
2022/12/12 04:55:15;;;;;;;54.07;32.17;;;;;;;3.39;100.00;93484.81;5014931;28;20200;-75
2022/12/12 04:57:47;;;;;;;56.97;34.07;;;;;;;3.38;100.00;93484.00;5021932;28;20203;-75
2022/12/12 05:00:15;;;;;;;56.10;33.40;;;;;;;3.50;100.00;93488.50;5023871;28;20677;-74
2022/12/12 05:02:53;;;;;;;49.73;29.13;;;;;;;3.47;100.00;93496.63;5023465;28;20252;-76
2022/12/12 05:05:26;;;;;;;51.27;29.40;;;;;;;3.46;100.00;93484.78;5015195;28;20202;-75
2022/12/12 05:07:58;;;;;;;51.90;30.20;;;;;;;3.51;100.00;93497.78;5019970;28;20191;-75
2022/12/12 05:10:25;;;;;;;43.37;26.40;;;;;;;3.53;100.00;93491.47;5022457;28;20246;-75
2022/12/12 05:12:57;;;;;;;49.03;27.67;;;;;;;3.51;100.00;93492.66;5019164;28;20219;-77
2022/12/12 05:15:25;;;;;;;46.17;26.83;;;;;;;3.52;100.00;93494.25;5018919;28;20191;-77
2022/12/12 05:17:57;;;;;;;49.30;28.57;;;;;;;3.50;100.00;93491.06;5019056;28;20636;-77
2022/12/12 05:20:24;;;;;;;48.53;28.83;;;;;;;3.59;100.00;93492.44;5009526;28;20211;-77
2022/12/12 05:22:51;;;;;;;51.20;30.13;;;;;;;3.57;100.00;93494.41;5025459;28;20205;-77
2022/12/12 05:25:19;;;;;;;159.33;83.70;;;;;;;3.54;100.00;93498.19;5025028;28;20206;-75
2022/12/12 05:27:46;;;;;;;175.87;99.57;;;;;;;3.64;100.00;93502.88;5024335;28;20230;-73
2022/12/12 05:30:13;;;;;;;111.23;56.00;;;;;;;3.60;100.00;93510.22;5018592;28;20277;-74
2022/12/12 05:32:40;;;;;;;160.67;90.83;;;;;;;3.66;100.00;93506.84;5018796;28;20220;-74
2022/12/12 05:35:09;;;;;;;202.40;113.53;;;;;;;3.62;100.00;93510.78;5025182;28;20198;-75
2022/12/12 05:37:36;;;;;;;119.63;66.43;;;;;;;3.68;100.00;93504.84;5011252;28;20298;-82
2022/12/12 05:40:04;;;;;;;106.00;60.50;;;;;;;3.69;100.00;93505.63;5020187;28;20211;-75
2022/12/12 05:42:33;;;;;;;80.60;46.33;;;;;;;3.53;100.00;93503.50;5023101;28;20196;-76
2022/12/12 05:44:59;;;;;;;53.07;31.97;;;;;;;3.48;100.00;93499.00;5026436;28;20209;-75
2022/12/12 05:47:27;;;;;;;63.03;36.93;;;;;;;3.44;100.00;93503.75;5016804;28;20191;-75
2022/12/12 05:49:54;;;;;;;101.00;54.83;;;;;;;3.47;100.00;93507.69;5022422;28;20194;-75
2022/12/12 05:52:20;;;;;;;80.07;43.63;;;;;;;3.58;100.00;93519.88;5017710;28;20207;-76
2022/12/12 05:54:47;;;;;;;60.83;34.27;;;;;;;3.54;100.00;93508.47;5020280;28;20609;-75
2022/12/12 05:57:16;;;;;;;46.80;25.13;;;;;;;3.62;100.00;93515.94;5022449;28;20206;-75
2022/12/12 05:59:44;;;;;;;43.53;24.73;;;;;;;3.61;100.00;93522.03;5020308;28;20206;-77
2022/12/12 06:02:11;;;;;;;43.53;25.23;;;;;;;3.61;100.00;93523.84;5019235;28;20214;-78
2022/12/12 06:04:38;;;;;;;73.17;38.73;;;;;;;3.60;100.00;93515.34;5027317;28;20218;-76
2022/12/12 06:07:05;;;;;;;124.60;59.13;;;;;;;3.67;100.00;93517.88;5021660;28;20210;-75
2022/12/12 06:10:17;;;;;;;94.73;49.63;;;;;;;3.75;100.00;93515.09;4996622;28;20204;-79
2022/12/12 06:12:44;;;;;;;62.57;34.37;;;;;;;3.75;100.00;93526.13;5015262;28;20222;-77
2022/12/12 06:15:12;;;;;;;47.60;26.17;;;;;;;3.77;100.00;93531.88;5026272;28;20206;-79
2022/12/12 06:17:39;;;;;;;36.27;21.80;;;;;;;3.79;100.00;93540.16;5015785;28;20203;-78
2022/12/12 06:20:07;;;;;;;36.63;20.30;;;;;;;3.75;100.00;93533.06;5023568;28;20253;-77
2022/12/12 06:22:34;;;;;;;36.57;21.60;;;;;;;3.82;100.00;93547.47;5024206;28;20242;-78
2022/12/12 06:25:01;;;;;;;37.17;21.73;;;;;;;3.85;100.00;93544.47;5017143;28;20210;-76
2022/12/12 06:27:28;;;;;;;33.00;21.17;;;;;;;3.84;100.00;93552.38;5016682;28;20238;-75
2022/12/12 06:29:55;;;;;;;33.80;20.43;;;;;;;3.86;100.00;93553.78;5020842;28;20282;-75
2022/12/12 06:32:23;;;;;;;35.83;21.30;;;;;;;3.90;100.00;93559.28;5020241;28;20223;-76
2022/12/12 06:34:50;;;;;;;33.53;20.97;;;;;;;3.91;100.00;93566.00;5019424;28;21002;-76
2022/12/12 06:37:17;;;;;;;41.40;24.53;;;;;;;3.96;100.00;93561.03;5018399;28;20594;-75
2022/12/12 06:39:45;;;;;;;49.00;28.17;;;;;;;3.98;100.00;93566.78;5019773;28;20194;-75
2022/12/12 06:42:11;;;;;;;44.43;27.27;;;;;;;3.89;100.00;93571.34;5015113;28;20664;-75
2022/12/12 06:44:38;;;;;;;60.47;35.73;;;;;;;3.65;100.00;93574.59;5014357;28;20228;-75
2022/12/12 06:47:05;;;;;;;64.47;35.97;;;;;;;3.54;100.00;93572.66;5017821;28;20201;-74
2022/12/12 06:49:33;;;;;;;63.27;36.00;;;;;;;3.59;100.00;93569.47;5017904;28;20207;-77
2022/12/12 06:52:00;;;;;;;59.47;33.30;;;;;;;3.58;100.00;93567.91;5023641;28;20303;-76
2022/12/12 06:54:27;;;;;;;59.43;33.93;;;;;;;3.59;100.00;93569.47;5021186;28;20642;-75
2022/12/12 06:56:54;;;;;;;54.53;32.60;;;;;;;3.64;100.00;93575.56;5018483;28;20195;-75
2022/12/12 06:59:21;;;;;;;59.43;35.63;;;;;;;3.73;100.00;93579.50;5017080;28;20206;-77
2022/12/12 07:01:47;;;;;;;63.77;34.73;;;;;;;3.75;100.00;93579.31;5018346;28;20207;-78
2022/12/12 07:04:15;;;;;;;61.13;35.67;;;;;;;3.90;100.00;93590.91;5025213;28;20194;-77
2022/12/12 07:06:43;;;;;;;58.70;33.97;;;;;;;3.91;100.00;93595.06;5023071;28;20203;-78
2022/12/12 07:09:10;;;;;;;57.63;33.67;;;;;;;3.97;100.00;93598.59;5025789;28;20203;-78
2022/12/12 07:11:39;;;;;;;57.57;30.87;;;;;;;4.01;100.00;93597.97;5018460;28;20550;-75
2022/12/12 07:14:06;;;;;;;47.33;28.77;;;;;;;4.03;100.00;93599.56;5019151;28;20211;-75
2022/12/12 07:16:33;;;;;;;50.43;30.90;;;;;;;4.12;100.00;93594.00;5021136;28;20604;-75
2022/12/12 07:19:00;;;;;;;34.10;21.20;;;;;;;4.17;100.00;93601.06;5019324;28;20206;-77
2022/12/12 07:21:27;;;;;;;31.37;19.77;;;;;;;4.22;100.00;93612.31;5025745;28;20203;-77
2022/12/12 07:23:55;;;;;;;35.03;20.63;;;;;;;4.20;100.00;93610.94;5025720;28;20202;-77
2022/12/12 07:26:24;;;;;;;32.13;20.13;;;;;;;4.32;100.00;93620.41;4969089;28;20232;-74
2022/12/12 07:28:51;;;;;;;30.23;19.30;;;;;;;4.37;100.00;93625.72;4992684;28;20195;-78
2022/12/12 07:31:21;;;;;;;44.20;24.53;;;;;;;4.34;100.00;93622.75;5025933;28;20583;-78
2022/12/12 07:33:48;;;;;;;35.50;20.47;;;;;;;4.40;100.00;93625.28;5022541;28;20719;-76
2022/12/12 07:36:16;;;;;;;32.20;20.07;;;;;;;4.43;100.00;93635.19;5022552;28;20187;-78
2022/12/12 07:38:43;;;;;;;29.27;19.03;;;;;;;4.51;100.00;93640.06;5017677;28;20210;-78
2022/12/12 07:41:13;;;;;;;30.90;18.10;;;;;;;4.55;100.00;93650.75;5018849;28;20211;-77
2022/12/12 07:43:42;;;;;;;28.27;17.67;;;;;;;4.36;100.00;93642.13;5017511;28;20198;-78
2022/12/12 07:46:10;;;;;;;34.63;18.87;;;;;;;4.50;100.00;93666.03;5015625;28;20207;-78
2022/12/12 07:48:37;;;;;;;29.07;18.37;;;;;;;4.52;100.00;93666.59;5017168;28;20273;-77
2022/12/12 07:51:07;;;;;;;35.83;21.97;;;;;;;4.61;100.00;93667.16;5018533;28;20652;-82
2022/12/12 07:53:34;;;;;;;34.20;21.23;;;;;;;4.58;100.00;93663.19;5029687;28;20218;-82
2022/12/12 07:56:03;;;;;;;39.53;25.23;;;;;;;4.46;100.00;93649.41;5019814;28;20207;-83
2022/12/12 07:58:32;;;;;;;35.63;22.87;;;;;;;4.33;100.00;93659.75;5015453;28;20200;-81
2022/12/12 08:00:59;;;;;;;41.10;25.37;;;;;;;4.24;100.00;93669.47;5021716;28;20199;-80
2022/12/12 08:03:25;;;;;;;42.93;24.37;;;;;;;4.22;100.00;93665.53;5018295;28;20195;-82
2022/12/12 08:05:52;;;;;;;41.40;25.10;;;;;;;4.38;100.00;93683.88;5026270;28;20213;-81
2022/12/12 08:08:19;;;;;;;49.67;28.00;;;;;;;4.57;100.00;93682.19;5027581;28;20203;-81
2022/12/12 08:10:46;;;;;;;48.13;28.30;;;;;;;4.67;100.00;93692.06;5021301;28;20241;-80
2022/12/12 08:13:13;;;;;;;52.90;29.50;;;;;;;4.77;100.00;93688.03;5025123;28;20231;-82
2022/12/12 08:15:42;;;;;;;53.50;32.50;;;;;;;4.86;100.00;93688.56;5031656;28;20215;-82
2022/12/12 08:18:09;;;;;;;52.70;30.40;;;;;;;4.79;100.00;93680.88;5027314;28;20762;-81
2022/12/12 08:20:39;;;;;;;64.17;36.17;;;;;;;4.89;100.00;93693.31;5029375;28;20207;-80
2022/12/12 08:23:06;;;;;;;58.47;35.30;;;;;;;4.91;100.00;93693.88;5025259;28;20561;-77
2022/12/12 08:25:34;;;;;;;63.87;36.83;;;;;;;4.96;100.00;93701.78;5024502;28;20199;-78
2022/12/12 08:28:01;;;;;;;61.33;36.87;;;;;;;4.96;100.00;93706.94;5024590;28;20197;-78
2022/12/12 08:30:28;;;;;;;71.43;41.53;;;;;;;4.97;100.00;93699.00;5023911;28;20206;-77
2022/12/12 08:32:56;;;;;;;72.63;41.83;;;;;;;5.05;100.00;93706.47;5024717;28;20227;-77
2022/12/12 08:35:23;;;;;;;69.20;39.43;;;;;;;5.01;100.00;93699.38;5015547;28;20208;-77
2022/12/12 08:37:50;;;;;;;61.03;35.37;;;;;;;5.05;100.00;93705.72;5022580;28;20197;-76
2022/12/12 08:40:16;;;;;;;60.23;35.47;;;;;;;5.17;100.00;93698.88;5015506;28;20211;-80
2022/12/12 08:42:43;;;;;;;58.53;32.83;;;;;;;5.27;100.00;93696.63;5021621;28;20195;-79
2022/12/12 08:45:11;;;;;;;55.20;30.57;;;;;;;5.38;100.00;93695.97;5032365;28;20301;-80
2022/12/12 08:47:37;;;;;;;48.87;28.47;;;;;;;5.45;100.00;93698.50;5029211;28;20259;-80
2022/12/12 08:50:07;;;;;;;47.87;28.87;;;;;;;5.34;100.00;93681.91;5018371;28;20203;-79
2022/12/12 08:52:34;;;;;;;50.83;29.70;;;;;;;5.56;100.00;93690.06;5027649;28;20342;-79
2022/12/12 08:55:01;;;;;;;51.80;30.97;;;;;;;5.62;100.00;93678.94;5028874;28;20681;-78
2022/12/12 08:57:27;;;;;;;55.60;33.07;;;;;;;5.68;100.00;93686.56;5026089;28;20203;-80
2022/12/12 08:59:54;;;;;;;60.90;36.00;;;;;;;5.73;100.00;93694.47;5028361;28;20226;-78
2022/12/12 09:02:21;;;;;;;58.37;35.10;;;;;;;5.83;100.00;93693.22;5026390;28;20200;-79
2022/12/12 09:04:48;;;;;;;64.97;37.50;;;;;;;5.87;100.00;93691.81;5024264;28;20205;-79
2022/12/12 09:07:16;;;;;;;63.30;40.10;;;;;;;5.86;100.00;93683.28;5025099;28;20220;-80
2022/12/12 09:09:43;;;;;;;72.67;42.57;;;;;;;5.71;100.00;93673.28;5024597;28;20210;-79
2022/12/12 09:12:10;;;;;;;63.87;39.47;;;;;;;5.77;100.00;93683.75;5021824;28;20225;-79
2022/12/12 09:14:37;;;;;;;49.87;31.17;;;;;;;5.68;100.00;93670.34;5019590;28;20286;-79
2022/12/12 09:17:03;;;;;;;44.80;26.10;;;;;;;5.64;100.00;93677.72;5017209;28;20747;-79
2022/12/12 09:19:30;;;;;;;43.83;27.30;;;;;;;5.68;100.00;93681.41;5019646;28;20205;-79
2022/12/12 09:21:57;;;;;;;40.70;24.00;;;;;;;5.73;100.00;93684.19;5014200;28;20202;-78
2022/12/12 09:24:26;;;;;;;37.47;23.77;;;;;;;5.80;100.00;93686.66;5023927;28;20646;-78
2022/12/12 09:26:52;;;;;;;44.33;25.10;;;;;;;5.83;100.00;93677.75;5025240;28;20771;-78
2022/12/12 09:29:19;;;;;;;41.53;24.17;;;;;;;5.78;100.00;93670.63;5018759;28;20203;-77
2022/12/12 09:31:46;;;;;;;42.77;25.67;;;;;;;5.87;100.00;93666.03;5021297;28;20189;-78
2022/12/12 09:34:13;;;;;;;39.40;24.00;;;;;;;5.94;100.00;93653.88;5024247;28;20224;-78
2022/12/12 09:36:42;;;;;;;38.20;23.93;;;;;;;5.97;100.00;93658.59;5023794;28;20221;-77
2022/12/12 09:39:08;;;;;;;38.30;24.60;;;;;;;5.97;100.00;93656.03;5027516;28;20197;-77
2022/12/12 09:41:37;;;;;;;35.27;22.20;;;;;;;6.03;100.00;93663.66;5027540;28;20256;-77
2022/12/12 09:44:08;;;;;;;42.93;22.87;;;;;;;6.07;100.00;93653.72;5013680;28;20210;-76
2022/12/12 09:46:40;;;;;;;37.00;22.70;;;;;;;6.11;100.00;93660.03;5022302;28;20678;-77
2022/12/12 09:49:17;;;;;;;40.90;24.93;;;;;;;6.17;100.00;93656.59;5017803;28;20292;-78
2022/12/12 09:51:49;;;;;;;39.60;25.17;;;;;;;6.27;100.00;93660.25;5019396;28;20206;-77
2022/12/12 09:54:19;;;;;;;42.93;25.60;;;;;;;6.38;100.00;93663.88;5021758;28;20664;-77
2022/12/12 09:56:59;;;;;;;43.77;25.63;;;;;;;6.37;100.00;93654.59;5018722;28;20214;-77
2022/12/12 09:59:34;;;;;;;40.43;24.33;;;;;;;6.45;100.00;93656.06;5018332;28;20198;-77
2022/12/12 10:02:15;;;;;;;44.07;27.33;;;;;;;6.58;100.00;93658.50;5023374;28;20743;-77
2022/12/12 10:04:52;;;;;;;39.30;25.30;;;;;;;6.64;100.00;93650.66;5014410;28;20206;-77
2022/12/12 10:07:25;;;;;;;48.60;29.90;;;;;;;6.70;100.00;93654.94;5024080;28;20209;-76
2022/12/12 10:10:04;;;;;;;49.67;31.43;;;;;;;6.74;100.00;93650.94;5019310;28;20201;-78
2022/12/12 10:12:34;;;;;;;53.40;32.23;;;;;;;6.81;100.00;93649.03;5027161;28;20210;-78
2022/12/12 10:15:03;;;;;;;49.20;29.83;;;;;;;6.78;100.00;93639.16;5025595;28;20194;-78
2022/12/12 10:17:33;;;;;;;50.00;31.10;;;;;;;6.81;100.00;93646.44;5021186;28;20645;-77
2022/12/12 10:20:05;;;;;;;51.93;32.43;;;;;;;6.84;100.00;93646.00;5014739;28;20661;-77
2022/12/12 10:22:37;;;;;;;49.33;31.33;;;;;;;6.90;100.00;93641.00;5016824;28;20198;-77
2022/12/12 10:25:15;;;;;;;51.53;32.13;;;;;;;6.97;100.00;93631.34;5021372;28;20209;-76
2022/12/12 10:27:43;;;;;;;54.57;32.27;;;;;;;7.14;100.00;93622.75;5020563;28;20237;-77
2022/12/12 10:30:16;;;;;;;45.13;26.43;;;;;;;7.82;100.00;93628.16;5021156;28;20663;-77
2022/12/12 10:33:03;;;;;;;41.80;25.57;;;;;;;9.17;100.00;93623.28;5021393;28;20218;-77
2022/12/12 10:35:38;;;;;;;33.83;19.43;;;;;;;11.29;91.31;93636.34;5020772;28;20183;-78
2022/12/12 10:38:23;;;;;;;30.80;18.13;;;;;;;13.05;80.16;93633.97;5020493;28;20248;-78
2022/12/12 10:40:58;;;;;;;36.33;18.20;;;;;;;14.62;74.84;93614.53;5019162;28;20590;-78
2022/12/12 10:43:31;;;;;;;32.10;19.53;;;;;;;15.22;70.74;93617.88;5018621;28;20199;-77
2022/12/12 10:46:15;;;;;;;38.10;23.23;;;;;;;14.60;70.90;93611.41;5016701;28;20184;-77
2022/12/12 10:48:42;;;;;;;40.20;24.03;;;;;;;13.88;72.81;93618.91;5017601;28;20195;-78
2022/12/12 10:51:12;;;;;;;42.77;25.27;;;;;;;13.29;74.92;93629.06;5017247;28;20199;-77
2022/12/12 10:53:40;;;;;;;40.00;25.87;;;;;;;12.62;76.98;93629.94;5027275;28;20222;-79
2022/12/12 10:56:10;;;;;;;48.33;29.87;;;;;;;11.88;79.24;93624.09;5021735;28;20203;-78
2022/12/12 10:58:40;;;;;;;50.07;31.43;;;;;;;11.04;82.68;93623.91;5020381;28;20206;-79
2022/12/12 11:01:13;;;;;;;54.10;33.90;;;;;;;10.50;85.13;93614.50;5026779;28;20649;-78
2022/12/12 11:03:42;;;;;;;56.13;33.67;;;;;;;10.02;87.29;93621.16;5022809;28;20188;-79
2022/12/12 11:09:18;;;;;;;67.93;35.33;;;;;;;9.06;92.26;93624.88;5024929;28;20198;-79
2022/12/12 11:11:57;;;;;;;61.03;34.73;;;;;;;8.77;94.26;93625.97;5030689;28;20207;-81
2022/12/12 11:14:32;;;;;;;67.83;35.83;;;;;;;8.71;94.67;93619.09;5029377;28;20207;-78
2022/12/12 11:17:24;;;;;;;63.37;35.30;;;;;;;8.57;95.49;93611.84;5022557;28;20304;-80
2022/12/12 11:19:53;;;;;;;59.80;34.10;;;;;;;8.64;97.97;93621.03;5023095;28;20187;-77
2022/12/12 11:22:21;;;;;;;67.53;37.10;;;;;;;8.60;98.45;93617.31;5023636;28;20198;-79
2022/12/12 11:24:50;;;;;;;58.60;35.07;;;;;;;7.98;99.15;93611.97;5019578;28;20202;-76
2022/12/12 11:27:23;;;;;;;57.40;33.37;;;;;;;7.44;100.00;93605.34;5022633;28;20709;-76
2022/12/12 11:29:53;;;;;;;58.53;32.63;;;;;;;6.91;100.00;93594.28;5024877;28;20221;-78
2022/12/12 11:32:22;;;;;;;62.27;34.13;;;;;;;6.84;100.00;93594.38;5026317;28;20202;-78
2022/12/12 11:34:52;;;;;;;62.33;34.50;;;;;;;6.93;100.00;93588.88;5022806;28;20215;-76
2022/12/12 11:37:21;;;;;;;54.43;32.97;;;;;;;7.01;100.00;93581.63;5022546;28;20206;-77
2022/12/12 11:39:51;;;;;;;59.20;33.77;;;;;;;7.01;100.00;93584.22;5019454;28;20191;-77
2022/12/12 11:42:29;;;;;;;60.77;34.00;;;;;;;6.77;100.00;93583.38;5032282;28;20290;-78
2022/12/12 11:45:04;;;;;;;57.77;33.70;;;;;;;6.48;100.00;93591.13;5025570;28;20206;-78
2022/12/12 11:47:37;;;;;;;61.47;35.17;;;;;;;6.58;100.00;93574.09;5016752;28;20197;-77
2022/12/12 11:50:18;;;;;;;67.67;36.10;;;;;;;6.88;100.00;93575.84;5022878;28;20213;-77
2022/12/12 11:52:46;;;;;;;66.90;35.80;;;;;;;7.07;100.00;93570.38;5019665;28;20213;-78